This is the latest recevied weather packets stored in our database for station/object KC3SOZ. If no packets are shown the sender has not sent any weather packets the latest 10 day(s).
| Time | Temp. | Humidity | Pressure | Rain* | Wind** | Luminosity | Snow |
|---|---|---|---|---|---|---|---|
| 1778224192 | 4.44° C | 99% | 1013.6 hPa | 0 mm | - | 0 W/m² | - |
| 1778223889 | 5° C | 99% | 1013.5 hPa | 0 mm | - | 0 W/m² | - |
| 1778223587 | 4.44° C | 99% | 1013.6 hPa | 0 mm | - | 0 W/m² | - |
| 1778223285 | 4.44° C | 99% | 1013.6 hPa | 0 mm | - | 0 W/m² | - |
| 1778222983 | 4.44° C | 98% | 1013.6 hPa | 0 mm | - | 0 W/m² | - |
| 1778222680 | 5° C | 98% | 1013.5 hPa | 0 mm | - | 0 W/m² | - |
| 1778222378 | 5° C | 97% | 1013.6 hPa | 0 mm | - | 0 W/m² | - |
| 1778222075 | 5.56° C | 96% | 1013.7 hPa | 0 mm | - | 0 W/m² | - |
| 1778221772 | 6.11° C | 92% | 1013.4 hPa | 0 mm | - | 0 W/m² | - |
| 1778221470 | 6.67° C | 92% | 1013.6 hPa | 0 mm | - | 0 W/m² | - |
| 1778221167 | 6.67° C | 93% | 1013.5 hPa | 0 mm | - | 0 W/m² | - |
| 1778220865 | 6.11° C | 96% | 1013.5 hPa | 0 mm | - | 0 W/m² | - |
| 1778220560 | 6.11° C | 96% | 1013.7 hPa | 0 mm | - | 0 W/m² | - |
| 1778220258 | 6.11° C | 95% | 1013.5 hPa | 0 mm | - | 0 W/m² | - |
| 1778219954 | 6.67° C | 92% | 1013.3 hPa | 0 mm | - | 0 W/m² | - |
| 1778219651 | 7.22° C | 89% | 1013.5 hPa | 0 mm | - | 0 W/m² | - |
| 1778219347 | 7.22° C | 88% | 1013.5 hPa | 0 mm | - | 0 W/m² | - |
| 1778219045 | 7.22° C | 87% | 1013.5 hPa | 0 mm | - | 0 W/m² | - |
| 1778218741 | 7.78° C | 86% | 1013.4 hPa | 0 mm | - | 0 W/m² | - |
| 1778218439 | 7.78° C | 86% | 1013.3 hPa | 0 mm | - | 0 W/m² | - |
| 1778218136 | 7.78° C | 86% | 1013.5 hPa | 0 mm | - | 0 W/m² | - |
| 1778217834 | 7.78° C | 86% | 1013.3 hPa | 0 mm | - | 0 W/m² | - |
| 1778217529 | 7.78° C | 86% | 1013.5 hPa | 0 mm | - | 0 W/m² | - |
| 1778217225 | 7.78° C | 86% | 1013.7 hPa | 0 mm | - | 0 W/m² | - |
| 1778216921 | 7.78° C | 86% | 1013.5 hPa | 0 mm | - | 0 W/m² | - |
* Rain latest hour (hover to see other rain measurements)
** Current wind speed in m/s (hover to see current wind gust speed)